createdAt,value
2023-02-13T00:01:20.762Z,-6.11
2023-02-13T00:03:49.042Z,-6.07
2023-02-13T00:06:17.207Z,-6.02
2023-02-13T00:08:45.341Z,-6.01
2023-02-13T00:11:13.978Z,-5.97
2023-02-13T00:13:42.368Z,-5.91
2023-02-13T00:16:10.957Z,-5.89
2023-02-13T00:18:39.793Z,-5.83
2023-02-13T00:21:10.811Z,-5.78
2023-02-13T00:23:39.915Z,-5.77
2023-02-13T00:26:11.062Z,-5.75
2023-02-13T00:28:40.897Z,-5.77
2023-02-13T00:31:12.419Z,-5.73
2023-02-13T00:33:40.959Z,-5.69
2023-02-13T00:36:12.840Z,-5.63
2023-02-13T00:38:42.544Z,-5.54
2023-02-13T00:41:11.394Z,-5.44
2023-02-13T00:43:39.610Z,-5.37
2023-02-13T00:46:07.689Z,-5.29
2023-02-13T00:48:36.101Z,-5.16
2023-02-13T00:51:05.379Z,-5.06
2023-02-13T00:53:35.257Z,-4.98
2023-02-13T00:56:05.202Z,-4.97
2023-02-13T00:58:33.974Z,-4.98
2023-02-13T01:01:02.278Z,-4.93
2023-02-13T01:03:30.754Z,-4.94
2023-02-13T01:05:59.558Z,-5.04
2023-02-13T01:08:28.580Z,-5.11
2023-02-13T01:10:58.008Z,-5.16
2023-02-13T01:13:27.432Z,-5.20
2023-02-13T01:15:56.878Z,-5.22
2023-02-13T01:18:24.977Z,-5.22
2023-02-13T01:21:01.789Z,-5.24
2023-02-13T01:23:34.356Z,-5.26
2023-02-13T01:26:07.951Z,-5.25
2023-02-13T01:28:36.127Z,-5.24
2023-02-13T01:31:06.064Z,-5.30
2023-02-13T01:33:36.181Z,-5.44
2023-02-13T01:36:10.013Z,-5.58
2023-02-13T01:38:38.981Z,-5.70
2023-02-13T01:41:08.032Z,-5.77
2023-02-13T01:43:48.239Z,-5.89
2023-02-13T01:46:25.025Z,-6.00
2023-02-13T01:48:56.691Z,-6.06
2023-02-13T01:51:30.805Z,-6.10
2023-02-13T01:54:04.402Z,-6.15
2023-02-13T01:56:55.947Z,-6.13
2023-02-13T01:59:34.609Z,-6.08
2023-02-13T02:02:03.504Z,-6.03
2023-02-13T02:04:38.822Z,-6.00
2023-02-13T02:07:17.763Z,-6.00
2023-02-13T02:09:46.769Z,-6.01
2023-02-13T02:12:20.755Z,-5.97
2023-02-13T02:14:50.514Z,-6.01
2023-02-13T02:17:19.035Z,-6.05
2023-02-13T02:20:08.588Z,-5.98
2023-02-13T02:23:06.585Z,-5.98
2023-02-13T02:25:47.045Z,-6.00
2023-02-13T02:28:27.506Z,-6.05
2023-02-13T02:31:08.091Z,-6.06
2023-02-13T02:34:08.879Z,-6.18
2023-02-13T02:36:41.104Z,-6.28
2023-02-13T02:39:20.386Z,-6.35
2023-02-13T02:41:58.686Z,-6.45
2023-02-13T02:44:35.677Z,-6.59
2023-02-13T02:47:44.271Z,-6.69
2023-02-13T02:50:46.857Z,-6.81
2023-02-13T02:53:30.852Z,-6.91
2023-02-13T02:56:11.049Z,-7.02
2023-02-13T02:59:11.396Z,-7.06
2023-02-13T03:02:00.044Z,-7.09
2023-02-13T03:04:53.014Z,-7.11
2023-02-13T03:07:21.354Z,-7.03
2023-02-13T03:10:15.888Z,-6.96
2023-02-13T03:13:21.126Z,-6.84
2023-02-13T03:16:11.524Z,-6.76
2023-02-13T03:19:01.539Z,-6.71
2023-02-13T03:22:09.724Z,-6.65
2023-02-13T03:25:10.984Z,-6.60
2023-02-13T03:28:56.367Z,-6.65
2023-02-13T03:32:05.992Z,-6.76
2023-02-13T03:34:57.497Z,-6.81
2023-02-13T03:37:49.119Z,-6.92
2023-02-13T03:40:29.819Z,-6.97
2023-02-13T03:43:15.161Z,-6.96
2023-02-13T03:45:55.529Z,-7.06
2023-02-13T03:49:03.277Z,-7.14
2023-02-13T03:51:39.106Z,-7.20
2023-02-13T03:54:22.134Z,-7.21
2023-02-13T03:57:12.863Z,-7.30
2023-02-13T03:59:41.649Z,-7.42
2023-02-13T04:02:17.001Z,-7.41
2023-02-13T04:04:59.997Z,-7.47
2023-02-13T04:07:30.867Z,-7.48
2023-02-13T04:10:07.308Z,-7.49
2023-02-13T04:12:38.555Z,-7.47
2023-02-13T04:15:20.333Z,-7.42
2023-02-13T04:18:10.328Z,-7.30
2023-02-13T04:20:39.924Z,-7.13
2023-02-13T04:23:10.144Z,-7.08
2023-02-13T04:25:42.711Z,-7.11
2023-02-13T04:28:10.811Z,-7.24
2023-02-13T04:30:39.605Z,-7.36
2023-02-13T04:33:07.831Z,-7.41
2023-02-13T04:35:35.988Z,-7.35
2023-02-13T04:38:05.199Z,-7.34
2023-02-13T04:40:33.744Z,-7.39
2023-02-13T04:43:01.923Z,-7.50
2023-02-13T04:45:30.418Z,-7.51
2023-02-13T04:47:59.024Z,-7.54
2023-02-13T04:50:27.213Z,-7.56
2023-02-13T04:52:57.985Z,-7.56
2023-02-13T04:55:28.072Z,-7.56
2023-02-13T04:57:57.300Z,-7.61
2023-02-13T05:00:27.543Z,-7.61
2023-02-13T05:03:04.319Z,-7.63
2023-02-13T05:05:32.490Z,-7.72
2023-02-13T05:08:01.050Z,-7.76
2023-02-13T05:10:29.334Z,-7.77
2023-02-13T05:12:57.513Z,-7.72
2023-02-13T05:15:25.794Z,-7.64
2023-02-13T05:17:54.062Z,-7.53
2023-02-13T05:20:22.077Z,-7.49
2023-02-13T05:23:11.348Z,-7.39
2023-02-13T05:25:41.539Z,-7.27
2023-02-13T05:28:29.767Z,-7.18
2023-02-13T05:30:58.538Z,-7.09
2023-02-13T05:33:27.713Z,-6.95
2023-02-13T05:35:55.797Z,-6.88
2023-02-13T05:38:24.140Z,-6.83
2023-02-13T05:40:52.275Z,-6.81
2023-02-13T05:43:20.969Z,-6.79
2023-02-13T05:45:49.071Z,-6.87
2023-02-13T05:48:17.217Z,-6.88
2023-02-13T05:50:48.411Z,-6.72
2023-02-13T05:53:16.516Z,-6.38
2023-02-13T05:55:44.812Z,-6.06
2023-02-13T05:58:13.260Z,-5.68
2023-02-13T06:00:41.396Z,-5.28
2023-02-13T06:03:09.702Z,-4.82
2023-02-13T06:05:38.165Z,-4.43
2023-02-13T06:08:06.380Z,-4.10
2023-02-13T06:10:34.612Z,-4.04
2023-02-13T06:13:02.786Z,-3.94
2023-02-13T06:15:31.449Z,-3.69
2023-02-13T06:17:59.726Z,-3.46
2023-02-13T06:20:28.097Z,-3.25
2023-02-13T06:22:56.505Z,-2.85
2023-02-13T06:25:25.224Z,-2.32
2023-02-13T06:27:53.815Z,-1.93
2023-02-13T06:30:22.439Z,-1.45
2023-02-13T06:32:50.614Z,-1.34
2023-02-13T06:35:20.906Z,-0.96
2023-02-13T06:37:49.094Z,-0.47
2023-02-13T06:40:17.777Z,-0.15
2023-02-13T06:42:46.220Z,0.12
2023-02-13T06:45:15.107Z,0.63
2023-02-13T06:47:45.286Z,1.39
2023-02-13T06:50:15.374Z,2.15
2023-02-13T06:52:51.710Z,2.90
2023-02-13T06:55:20.997Z,3.72
2023-02-13T06:57:49.532Z,4.51
2023-02-13T07:00:18.833Z,5.21
2023-02-13T07:02:47.950Z,6.03
2023-02-13T07:05:16.258Z,6.96
2023-02-13T07:07:44.622Z,7.76
2023-02-13T07:10:14.061Z,8.53
2023-02-13T07:12:42.520Z,9.12
2023-02-13T07:15:11.211Z,9.73
2023-02-13T07:17:39.474Z,10.24
2023-02-13T07:20:08.661Z,10.65
2023-02-13T07:22:36.854Z,11.23
2023-02-13T07:25:05.330Z,11.65
2023-02-13T07:27:33.611Z,12.08
2023-02-13T07:30:01.913Z,12.57
2023-02-13T07:32:30.127Z,13.04
2023-02-13T07:35:02.068Z,13.57
2023-02-13T07:37:31.902Z,13.83
2023-02-13T07:40:00.122Z,14.25
2023-02-13T07:42:28.284Z,14.75
2023-02-13T07:44:56.416Z,15.26
2023-02-13T07:47:25.200Z,15.58
2023-02-13T07:49:55.013Z,15.16
2023-02-13T07:52:23.190Z,15.47
2023-02-13T07:54:51.622Z,15.08
2023-02-13T07:57:19.789Z,14.20
2023-02-13T07:59:47.885Z,14.20
2023-02-13T08:02:16.890Z,14.52
2023-02-13T08:04:47.552Z,15.38
2023-02-13T08:07:17.729Z,15.86
2023-02-13T08:10:05.092Z,16.77
2023-02-13T08:12:35.791Z,17.42
2023-02-13T08:15:04.531Z,17.59
2023-02-13T08:17:32.703Z,18.05
2023-02-13T08:20:00.912Z,18.26
2023-02-13T08:22:29.144Z,18.10
2023-02-13T08:24:57.375Z,17.83
2023-02-13T08:27:25.779Z,17.76
2023-02-13T08:29:53.977Z,18.21
2023-02-13T08:32:23.266Z,18.70
2023-02-13T08:34:52.231Z,18.70
2023-02-13T08:37:20.377Z,19.28
2023-02-13T08:39:48.542Z,19.23
2023-02-13T08:42:16.688Z,19.57
2023-02-13T08:44:45.374Z,19.91
2023-02-13T08:47:13.466Z,19.73
2023-02-13T08:49:41.665Z,19.77
2023-02-13T08:52:09.969Z,20.47
2023-02-13T08:54:38.183Z,20.89
2023-02-13T08:57:06.633Z,20.61
2023-02-13T08:59:37.740Z,20.48
2023-02-13T09:02:06.520Z,21.03
2023-02-13T09:04:34.739Z,21.19
2023-02-13T09:07:02.970Z,20.93
2023-02-13T09:09:32.080Z,21.03
2023-02-13T09:12:01.198Z,21.45
2023-02-13T09:14:29.553Z,21.99
2023-02-13T09:16:57.923Z,22.28
2023-02-13T09:19:26.182Z,22.46
2023-02-13T09:21:54.420Z,22.43
2023-02-13T09:24:22.818Z,22.81
2023-02-13T09:26:51.021Z,22.63
2023-02-13T09:29:19.192Z,22.79
2023-02-13T09:31:47.606Z,23.21
2023-02-13T09:34:16.162Z,23.35
2023-02-13T09:36:44.363Z,23.69
2023-02-13T09:39:12.690Z,24.04
2023-02-13T09:41:47.576Z,24.17
2023-02-13T09:44:34.327Z,24.15
2023-02-13T09:47:21.030Z,23.96
2023-02-13T09:49:54.043Z,24.46
2023-02-13T09:52:22.360Z,24.23
2023-02-13T09:54:50.553Z,24.65
2023-02-13T09:57:43.209Z,24.84
2023-02-13T10:00:42.625Z,25.14
2023-02-13T10:03:23.943Z,25.52
2023-02-13T10:06:06.457Z,25.60
2023-02-13T10:08:59.055Z,25.76
2023-02-13T10:12:01.841Z,25.61
2023-02-13T10:15:01.324Z,26.13
2023-02-13T10:17:41.916Z,26.08
2023-02-13T10:20:28.989Z,25.79
2023-02-13T10:23:10.398Z,25.53
2023-02-13T10:26:04.214Z,25.51
2023-02-13T10:28:44.984Z,25.22
2023-02-13T10:31:23.141Z,25.59
2023-02-13T10:33:56.382Z,25.65
2023-02-13T10:36:34.260Z,25.48
2023-02-13T10:39:12.605Z,25.13
2023-02-13T10:41:51.234Z,25.18
2023-02-13T10:44:46.643Z,25.46
2023-02-13T10:47:45.744Z,25.36
2023-02-13T10:50:46.101Z,25.73
2023-02-13T10:53:14.331Z,26.28
2023-02-13T10:56:01.353Z,26.28
2023-02-13T10:58:48.810Z,26.55
2023-02-13T11:01:23.938Z,25.83
2023-02-13T11:04:12.751Z,25.73
2023-02-13T11:06:44.039Z,25.88
2023-02-13T11:09:13.835Z,25.49
2023-02-13T11:11:44.059Z,25.63
2023-02-13T11:14:12.238Z,25.67
2023-02-13T11:16:50.518Z,26.04
2023-02-13T11:19:26.626Z,26.06
2023-02-13T11:21:59.165Z,26.20
2023-02-13T11:24:29.727Z,26.31
2023-02-13T11:27:09.290Z,26.06
2023-02-13T11:29:38.226Z,25.88
2023-02-13T11:32:15.429Z,25.55
2023-02-13T11:34:44.254Z,25.65
2023-02-13T11:37:12.401Z,25.39
2023-02-13T11:39:42.135Z,24.33
2023-02-13T11:42:16.375Z,23.41
2023-02-13T11:44:50.611Z,22.88
2023-02-13T11:47:32.978Z,22.95
2023-02-13T11:50:07.582Z,22.45
2023-02-13T11:52:36.680Z,21.30
2023-02-13T11:55:24.708Z,20.20
2023-02-13T11:58:15.971Z,19.11
2023-02-13T12:00:44.549Z,18.07
2023-02-13T12:03:32.874Z,17.09
2023-02-13T12:06:15.640Z,15.92
2023-02-13T12:08:47.345Z,15.08
2023-02-13T12:11:30.003Z,14.61
2023-02-13T12:13:58.452Z,14.14
2023-02-13T12:16:50.785Z,13.79
2023-02-13T12:19:46.959Z,13.15
2023-02-13T12:22:35.039Z,12.66
2023-02-13T12:25:40.873Z,12.20
2023-02-13T12:28:58.920Z,11.90
2023-02-13T12:31:42.192Z,11.65
2023-02-13T12:34:28.364Z,11.55
2023-02-13T12:37:14.385Z,11.46
2023-02-13T12:40:15.763Z,11.30
2023-02-13T12:43:05.937Z,10.92
2023-02-13T12:45:43.305Z,10.47
2023-02-13T12:48:51.738Z,10.15
2023-02-13T12:51:38.256Z,9.81
2023-02-13T12:54:18.646Z,9.64
2023-02-13T12:56:56.037Z,9.72
2023-02-13T12:59:30.625Z,9.66
2023-02-13T13:02:07.575Z,9.60
2023-02-13T13:04:50.785Z,9.57
2023-02-13T13:07:42.601Z,9.47
2023-02-13T13:10:38.079Z,9.45
2023-02-13T13:13:26.697Z,9.39
2023-02-13T13:16:18.401Z,9.24
2023-02-13T13:19:04.279Z,9.15
2023-02-13T13:22:12.152Z,9.06
2023-02-13T13:25:22.077Z,8.83
2023-02-13T13:27:56.413Z,8.65
2023-02-13T13:30:30.290Z,8.54
2023-02-13T13:33:15.552Z,8.35
2023-02-13T13:36:02.024Z,8.30
2023-02-13T13:38:42.255Z,8.18
2023-02-13T13:41:18.266Z,7.98
2023-02-13T13:43:55.194Z,7.74
2023-02-13T13:46:49.232Z,7.67
2023-02-13T13:49:23.060Z,7.64
2023-02-13T13:51:51.349Z,7.63
2023-02-13T13:54:23.339Z,7.58
2023-02-13T13:56:54.136Z,7.57
2023-02-13T13:59:34.333Z,7.49
2023-02-13T14:02:17.907Z,7.43
2023-02-13T14:05:26.142Z,7.28
2023-02-13T14:08:04.337Z,7.13
2023-02-13T14:10:32.515Z,7.12
2023-02-13T14:13:03.168Z,7.07
2023-02-13T14:15:34.114Z,6.97
2023-02-13T14:18:22.308Z,6.82
2023-02-13T14:20:54.163Z,6.68
2023-02-13T14:23:42.575Z,6.60
2023-02-13T14:26:16.551Z,6.51
2023-02-13T14:28:47.491Z,6.38
2023-02-13T14:31:27.587Z,6.34
2023-02-13T14:34:11.285Z,6.24
2023-02-13T14:37:27.399Z,6.07
2023-02-13T14:40:16.102Z,5.92
2023-02-13T14:43:19.431Z,5.80
2023-02-13T14:46:18.384Z,5.78
2023-02-13T14:48:56.431Z,5.68
2023-02-13T14:51:34.384Z,5.62
2023-02-13T14:54:16.119Z,5.48
2023-02-13T14:56:48.081Z,5.36
2023-02-13T14:59:25.064Z,5.26
2023-02-13T15:02:02.341Z,5.17
2023-02-13T15:04:40.933Z,4.99
2023-02-13T15:07:18.387Z,4.89
2023-02-13T15:09:53.592Z,4.80
2023-02-13T15:12:39.789Z,4.69
2023-02-13T15:15:37.299Z,4.52
2023-02-13T15:18:18.455Z,4.38
2023-02-13T15:20:47.195Z,4.28
2023-02-13T15:23:23.293Z,4.19
2023-02-13T15:26:00.834Z,4.12
2023-02-13T15:28:30.076Z,4.00
2023-02-13T15:31:24.167Z,3.89
2023-02-13T15:33:52.399Z,3.72
2023-02-13T15:36:25.507Z,3.61
2023-02-13T15:39:01.243Z,3.51
2023-02-13T15:41:38.763Z,3.42
2023-02-13T15:44:07.616Z,3.31
2023-02-13T15:46:38.869Z,3.22
2023-02-13T15:49:13.520Z,3.11
2023-02-13T15:51:42.137Z,3.02
2023-02-13T15:54:27.700Z,2.92
2023-02-13T15:56:59.338Z,2.79
2023-02-13T15:59:34.000Z,2.69
2023-02-13T16:02:04.744Z,2.59
2023-02-13T16:04:34.162Z,2.51
2023-02-13T16:07:02.387Z,2.48
2023-02-13T16:09:33.623Z,2.46
2023-02-13T16:12:05.230Z,2.42
2023-02-13T16:14:37.624Z,2.36
2023-02-13T16:17:12.938Z,2.27
2023-02-13T16:20:01.392Z,2.18
2023-02-13T16:22:34.364Z,2.07
2023-02-13T16:25:10.160Z,1.97
2023-02-13T16:27:43.679Z,1.84
2023-02-13T16:30:33.372Z,1.65
2023-02-13T16:33:14.357Z,1.46
2023-02-13T16:35:45.053Z,1.34
2023-02-13T16:38:35.052Z,1.25
2023-02-13T16:41:39.862Z,1.16
2023-02-13T16:44:26.680Z,1.08
2023-02-13T16:47:01.698Z,1.00
2023-02-13T16:49:36.753Z,0.94
2023-02-13T16:52:26.560Z,0.86
2023-02-13T16:54:58.618Z,0.77
2023-02-13T16:57:33.178Z,0.66
2023-02-13T17:00:01.347Z,0.61
2023-02-13T17:02:37.372Z,0.53
2023-02-13T17:05:08.340Z,0.36
2023-02-13T17:07:48.550Z,0.30
2023-02-13T17:10:34.079Z,0.24
2023-02-13T17:13:24.294Z,0.17
2023-02-13T17:15:52.653Z,0.12
2023-02-13T17:18:21.572Z,0.05
2023-02-13T17:20:50.362Z,0.01
2023-02-13T17:23:22.804Z,-0.04
2023-02-13T17:25:52.816Z,-0.08
2023-02-13T17:28:27.844Z,-0.14
2023-02-13T17:30:58.825Z,-0.18
2023-02-13T17:33:30.203Z,-0.21
2023-02-13T17:35:58.581Z,-0.28
2023-02-13T17:38:26.858Z,-0.41
2023-02-13T17:40:55.300Z,-0.52
2023-02-13T17:43:25.428Z,-0.73
2023-02-13T17:45:53.662Z,-0.84
2023-02-13T17:48:21.784Z,-0.95
2023-02-13T17:50:50.972Z,-1.00
2023-02-13T17:53:30.099Z,-1.02
2023-02-13T17:55:59.121Z,-0.97
2023-02-13T17:58:27.322Z,-1.00
2023-02-13T18:00:55.618Z,-0.98
2023-02-13T18:03:23.829Z,-0.94
2023-02-13T18:05:51.967Z,-0.91
2023-02-13T18:08:20.259Z,-0.92
2023-02-13T18:10:48.581Z,-0.99
2023-02-13T18:13:16.756Z,-1.05
2023-02-13T18:15:45.405Z,-1.11
2023-02-13T18:18:16.212Z,-1.18
2023-02-13T18:20:44.950Z,-1.21
2023-02-13T18:23:14.247Z,-1.23
2023-02-13T18:25:42.908Z,-1.29
2023-02-13T18:28:11.093Z,-1.35
2023-02-13T18:30:42.221Z,-1.49
2023-02-13T18:33:10.610Z,-1.65
2023-02-13T18:35:38.817Z,-1.78
2023-02-13T18:38:06.973Z,-1.84
2023-02-13T18:40:36.562Z,-1.81
2023-02-13T18:43:04.778Z,-1.78
2023-02-13T18:45:33.262Z,-1.83
2023-02-13T18:48:01.509Z,-1.79
2023-02-13T18:50:29.819Z,-1.69
2023-02-13T18:52:58.132Z,-1.60
2023-02-13T18:55:26.406Z,-1.53
2023-02-13T18:57:54.612Z,-1.47
2023-02-13T19:00:23.672Z,-1.56
2023-02-13T19:02:52.751Z,-1.58
2023-02-13T19:05:21.228Z,-1.64
2023-02-13T19:07:49.249Z,-1.73
2023-02-13T19:10:17.695Z,-1.78
2023-02-13T19:12:45.952Z,-1.91
2023-02-13T19:15:14.142Z,-2.04
2023-02-13T19:17:42.636Z,-2.07
2023-02-13T19:20:12.980Z,-2.09
2023-02-13T19:22:43.615Z,-2.03
2023-02-13T19:25:11.804Z,-1.93
2023-02-13T19:27:40.071Z,-1.85
2023-02-13T19:30:09.742Z,-1.84
2023-02-13T19:32:38.050Z,-1.88
2023-02-13T19:35:06.588Z,-1.93
2023-02-13T19:37:43.450Z,-1.99
2023-02-13T19:40:13.992Z,-2.08
2023-02-13T19:42:42.229Z,-2.08
2023-02-13T19:45:10.933Z,-2.08
2023-02-13T19:47:39.061Z,-2.01
2023-02-13T19:50:07.729Z,-1.92
2023-02-13T19:52:36.035Z,-1.81
2023-02-13T19:55:04.456Z,-1.71
2023-02-13T19:57:32.594Z,-1.63
2023-02-13T20:00:02.417Z,-1.55
2023-02-13T20:02:40.263Z,-1.50
2023-02-13T20:05:09.684Z,-1.42
2023-02-13T20:07:37.789Z,-1.35
2023-02-13T20:10:09.650Z,-1.29
2023-02-13T20:12:38.113Z,-1.26
2023-02-13T20:15:06.938Z,-1.24
2023-02-13T20:17:38.280Z,-1.21
2023-02-13T20:20:07.370Z,-1.18
2023-02-13T20:22:35.534Z,-1.17
2023-02-13T20:25:04.008Z,-1.20
2023-02-13T20:27:32.293Z,-1.24
2023-02-13T20:30:07.053Z,-1.26
2023-02-13T20:32:36.271Z,-1.25
2023-02-13T20:35:05.830Z,-1.25
2023-02-13T20:37:34.482Z,-1.23
2023-02-13T20:40:02.864Z,-1.22
2023-02-13T20:42:34.015Z,-1.22
2023-02-13T20:45:02.590Z,-1.22
2023-02-13T20:47:31.112Z,-1.27
2023-02-13T20:49:59.295Z,-1.29
2023-02-13T20:52:27.688Z,-1.30
2023-02-13T20:54:55.988Z,-1.29
2023-02-13T20:57:24.092Z,-1.27
2023-02-13T20:59:52.212Z,-1.26
2023-02-13T21:02:21.063Z,-1.24
2023-02-13T21:04:49.307Z,-1.22
2023-02-13T21:07:17.498Z,-1.22
2023-02-13T21:09:45.602Z,-1.20
2023-02-13T21:12:14.626Z,-1.18
2023-02-13T21:14:42.766Z,-1.13
2023-02-13T21:17:11.000Z,-1.13
2023-02-13T21:19:39.270Z,-1.08
2023-02-13T21:22:13.323Z,-1.01
2023-02-13T21:24:41.970Z,-0.94
2023-02-13T21:27:11.007Z,-0.88
2023-02-13T21:29:39.353Z,-0.82
2023-02-13T21:32:07.695Z,-0.77
2023-02-13T21:34:36.401Z,-0.77
2023-02-13T21:37:04.476Z,-0.75
2023-02-13T21:39:32.610Z,-0.75
2023-02-13T21:42:01.028Z,-0.75
2023-02-13T21:44:29.621Z,-0.72
2023-02-13T21:46:57.778Z,-0.70
2023-02-13T21:49:26.075Z,-0.68
2023-02-13T21:51:54.522Z,-0.64
2023-02-13T21:54:22.683Z,-0.60
2023-02-13T21:56:50.896Z,-0.57
2023-02-13T21:59:19.089Z,-0.55
2023-02-13T22:01:50.477Z,-0.53
2023-02-13T22:04:18.832Z,-0.52
2023-02-13T22:06:49.619Z,-0.51
2023-02-13T22:09:20.224Z,-0.48
2023-02-13T22:11:50.440Z,-0.44
2023-02-13T22:14:20.421Z,-0.40
2023-02-13T22:16:51.863Z,-0.35
2023-02-13T22:19:20.528Z,-0.30
2023-02-13T22:21:49.039Z,-0.27
2023-02-13T22:24:17.336Z,-0.25
2023-02-13T22:26:45.598Z,-0.20
2023-02-13T22:29:16.183Z,-0.16
2023-02-13T22:31:45.064Z,-0.12
2023-02-13T22:34:14.382Z,-0.05
2023-02-13T22:36:43.100Z,0.02
2023-02-13T22:39:12.790Z,0.06
2023-02-13T22:41:41.228Z,0.09
2023-02-13T22:44:09.372Z,0.14
2023-02-13T22:46:37.747Z,0.20
2023-02-13T22:49:05.953Z,0.24
2023-02-13T22:51:37.155Z,0.21
2023-02-13T22:54:06.009Z,0.20
2023-02-13T22:56:34.614Z,0.21
2023-02-13T22:59:02.926Z,0.23
2023-02-13T23:01:31.515Z,0.25
2023-02-13T23:03:59.874Z,0.23
2023-02-13T23:06:28.716Z,0.21
2023-02-13T23:08:57.471Z,0.22
2023-02-13T23:11:46.647Z,0.22
2023-02-13T23:14:15.128Z,0.25
2023-02-13T23:17:02.544Z,0.29
2023-02-13T23:19:31.172Z,0.30
2023-02-13T23:21:59.901Z,0.32
2023-02-13T23:24:29.672Z,0.33
2023-02-13T23:26:59.166Z,0.35
2023-02-13T23:29:27.560Z,0.37
2023-02-13T23:31:56.200Z,0.39
2023-02-13T23:34:24.524Z,0.42
2023-02-13T23:36:53.489Z,0.43
2023-02-13T23:39:21.678Z,0.43
2023-02-13T23:41:49.840Z,0.43
2023-02-13T23:44:18.048Z,0.44
2023-02-13T23:46:46.301Z,0.46
2023-02-13T23:49:14.673Z,0.50
2023-02-13T23:51:42.870Z,0.55
2023-02-13T23:54:15.738Z,0.61
2023-02-13T23:56:44.664Z,0.68
2023-02-13T23:59:13.437Z,0.74
